createdAt,value
2023-02-18T00:01:30.882Z,98204.81
2023-02-18T00:04:00.434Z,98213.09
2023-02-18T00:06:29.646Z,98213.47
2023-02-18T00:08:59.016Z,98212.25
2023-02-18T00:11:27.086Z,98214.50
2023-02-18T00:13:55.462Z,98222.53
2023-02-18T00:16:23.692Z,98222.22
2023-02-18T00:18:51.640Z,98232.81
2023-02-18T00:21:20.740Z,98240.56
2023-02-18T00:23:48.971Z,98238.13
2023-02-18T00:26:18.085Z,98250.34
2023-02-18T00:28:46.116Z,98252.03
2023-02-18T00:31:14.772Z,98255.56
2023-02-18T00:33:43.141Z,98262.63
2023-02-18T00:36:11.830Z,98260.66
2023-02-18T00:38:41.062Z,98269.22
2023-02-18T00:41:08.655Z,98273.94
2023-02-18T00:43:36.289Z,98284.28
2023-02-18T00:46:04.068Z,98283.16
2023-02-18T00:48:31.760Z,98297.69
2023-02-18T00:51:00.797Z,98304.72
2023-02-18T00:53:28.527Z,98304.97
2023-02-18T00:55:57.766Z,98306.19
2023-02-18T00:58:25.436Z,98318.50
2023-02-18T01:00:53.449Z,98320.88
2023-02-18T01:03:22.450Z,98322.41
2023-02-18T01:05:50.367Z,98327.94
2023-02-18T01:08:18.988Z,98335.81
2023-02-18T01:10:47.860Z,98329.59
2023-02-18T01:13:18.661Z,98333.25
2023-02-18T01:15:46.604Z,98341.25
2023-02-18T01:18:14.752Z,98343.34
2023-02-18T01:20:43.901Z,98350.41
2023-02-18T01:23:11.880Z,98348.28
2023-02-18T01:25:39.868Z,98347.00
2023-02-18T01:28:08.277Z,98348.16
2023-02-18T01:30:37.296Z,98345.00
2023-02-18T01:33:05.057Z,98358.84
2023-02-18T01:35:32.761Z,98356.59
2023-02-18T01:38:00.371Z,98360.25
2023-02-18T01:40:29.157Z,98359.19
2023-02-18T01:42:57.249Z,98372.81
2023-02-18T01:45:43.521Z,98369.16
2023-02-18T01:48:14.254Z,98370.78
2023-02-18T01:50:43.770Z,98369.16
2023-02-18T01:53:11.786Z,98386.25
2023-02-18T01:55:39.573Z,98391.31
2023-02-18T01:58:07.628Z,98384.41
2023-02-18T02:00:37.037Z,98396.34
2023-02-18T02:03:04.843Z,98399.88
2023-02-18T02:05:36.839Z,98405.03
2023-02-18T02:08:05.866Z,98405.97
2023-02-18T02:10:41.233Z,98408.56
2023-02-18T02:13:14.151Z,98411.81
2023-02-18T02:15:46.012Z,98412.66
2023-02-18T02:18:19.068Z,98421.34
2023-02-18T02:21:07.531Z,98427.41
2023-02-18T02:23:51.489Z,98430.84
2023-02-18T02:26:35.421Z,98436.81
2023-02-18T02:29:20.723Z,98437.63
2023-02-18T02:31:54.994Z,98438.56
2023-02-18T02:34:29.493Z,98446.44
2023-02-18T02:37:02.090Z,98443.84
2023-02-18T02:39:32.316Z,98447.16
2023-02-18T02:42:04.692Z,98454.06
2023-02-18T02:44:36.056Z,98457.47
2023-02-18T02:47:09.526Z,98468.69
2023-02-18T02:49:46.157Z,98462.72
2023-02-18T02:52:16.543Z,98471.28
2023-02-18T02:54:44.313Z,98473.84
2023-02-18T02:57:26.860Z,98486.75
2023-02-18T02:59:57.291Z,98487.59
2023-02-18T03:02:28.676Z,98498.75
2023-02-18T03:05:07.758Z,98496.16
2023-02-18T03:07:49.361Z,98509.06
2023-02-18T03:10:25.224Z,98514.22
2023-02-18T03:12:59.337Z,98531.56
2023-02-18T03:15:33.212Z,98540.13
2023-02-18T03:18:02.991Z,98536.00
2023-02-18T03:20:35.445Z,98542.09
2023-02-18T03:23:05.362Z,98550.88
2023-02-18T03:25:33.185Z,98553.56
2023-02-18T03:28:02.029Z,98554.63
2023-02-18T03:30:31.928Z,98565.88
2023-02-18T03:33:01.648Z,98571.97
2023-02-18T03:35:29.446Z,98578.06
2023-02-18T03:38:02.847Z,98578.88
2023-02-18T03:40:31.921Z,98588.38
2023-02-18T03:43:00.055Z,98585.19
2023-02-18T03:45:28.047Z,98604.09
2023-02-18T03:47:55.735Z,98610.25
2023-02-18T03:50:23.559Z,98613.78
2023-02-18T03:52:51.180Z,98619.16
2023-02-18T03:55:22.759Z,98626.28
2023-02-18T03:57:53.156Z,98629.78
2023-02-18T04:00:21.337Z,98634.00
2023-02-18T04:02:49.261Z,98637.53
2023-02-18T04:05:17.127Z,98637.53
2023-02-18T04:07:45.033Z,98652.06
2023-02-18T04:10:12.964Z,98647.63
2023-02-18T04:12:42.145Z,98659.69
2023-02-18T04:15:10.228Z,98664.84
2023-02-18T04:17:37.880Z,98663.31
2023-02-18T04:20:06.152Z,98662.38
2023-02-18T04:22:33.838Z,98678.91
2023-02-18T04:25:01.690Z,98678.06
2023-02-18T04:27:29.364Z,98677.03
2023-02-18T04:29:58.610Z,98690.75
2023-02-18T04:32:26.361Z,98703.53
2023-02-18T04:34:54.250Z,98698.47
2023-02-18T04:37:21.977Z,98708.78
2023-02-18T04:39:49.705Z,98713.03
2023-02-18T04:42:17.372Z,98718.09
2023-02-18T04:44:47.267Z,98723.13
2023-02-18T04:47:16.575Z,98725.63
2023-02-18T04:49:44.384Z,98732.31
2023-02-18T04:52:12.066Z,98735.72
2023-02-18T04:54:39.766Z,98742.41
2023-02-18T04:57:07.515Z,98749.19
2023-02-18T04:59:35.154Z,98753.44
2023-02-18T05:02:02.926Z,98774.88
2023-02-18T05:04:31.988Z,98771.41
2023-02-18T05:06:59.617Z,98777.25
2023-02-18T05:09:27.340Z,98778.19
2023-02-18T05:11:55.002Z,98784.06
2023-02-18T05:14:22.701Z,98793.56
2023-02-18T05:16:50.367Z,98804.81
2023-02-18T05:19:18.211Z,98810.69
2023-02-18T05:21:47.259Z,98812.41
2023-02-18T05:24:14.979Z,98814.09
2023-02-18T05:26:42.692Z,98824.41
2023-02-18T05:29:10.588Z,98840.69
2023-02-18T05:31:38.622Z,98848.66
2023-02-18T05:34:06.422Z,98850.53
2023-02-18T05:36:34.040Z,98856.50
2023-02-18T05:39:03.160Z,98851.56
2023-02-18T05:41:30.923Z,98863.63
2023-02-18T05:44:15.869Z,98859.41
2023-02-18T05:46:43.580Z,98870.53
2023-02-18T05:49:11.574Z,98883.53
2023-02-18T05:51:39.544Z,98877.47
2023-02-18T05:54:08.571Z,98887.78
2023-02-18T05:56:36.374Z,98888.56
2023-02-18T05:59:04.044Z,98890.56
2023-02-18T06:01:32.141Z,98900.13
2023-02-18T06:03:59.880Z,98907.78
2023-02-18T06:06:27.590Z,98911.19
2023-02-18T06:08:55.291Z,98932.53
2023-02-18T06:11:24.479Z,98935.22
2023-02-18T06:13:52.187Z,98930.88
2023-02-18T06:16:19.923Z,98943.78
2023-02-18T06:18:47.668Z,98943.69
2023-02-18T06:21:15.402Z,98948.72
2023-02-18T06:23:43.307Z,98957.41
2023-02-18T06:26:12.511Z,98960.00
2023-02-18T06:28:41.563Z,98968.53
2023-02-18T06:31:09.404Z,98971.22
2023-02-18T06:33:37.153Z,98972.06
2023-02-18T06:36:07.309Z,98973.78
2023-02-18T06:38:35.604Z,98983.19
2023-02-18T06:41:03.429Z,98987.53
2023-02-18T06:43:31.510Z,98990.94
2023-02-18T06:46:00.555Z,98997.63
2023-02-18T06:48:28.229Z,98999.38
2023-02-18T06:50:56.160Z,99007.84
2023-02-18T06:53:23.778Z,99010.34
2023-02-18T06:55:51.497Z,99013.75
2023-02-18T06:58:23.340Z,99020.47
2023-02-18T07:00:51.449Z,99017.78
2023-02-18T07:03:20.837Z,99018.69
2023-02-18T07:05:48.572Z,99024.69
2023-02-18T07:08:16.341Z,99021.25
2023-02-18T07:10:43.989Z,99025.50
2023-02-18T07:13:11.774Z,99026.31
2023-02-18T07:15:39.440Z,99035.84
2023-02-18T07:18:07.127Z,99030.66
2023-02-18T07:20:36.214Z,99043.66
2023-02-18T07:23:03.825Z,99048.84
2023-02-18T07:25:31.525Z,99039.41
2023-02-18T07:27:59.179Z,99051.41
2023-02-18T07:30:26.882Z,99051.59
2023-02-18T07:32:54.708Z,99054.00
2023-02-18T07:35:22.610Z,99064.41
2023-02-18T07:37:52.075Z,99070.38
2023-02-18T07:40:21.019Z,99078.00
2023-02-18T07:42:48.776Z,99088.34
2023-02-18T07:45:16.650Z,99082.47
2023-02-18T07:47:45.573Z,99085.75
2023-02-18T07:50:13.545Z,99090.09
2023-02-18T07:52:41.300Z,99086.69
2023-02-18T07:55:10.598Z,99092.78
2023-02-18T07:57:57.320Z,99101.31
2023-02-18T08:00:25.494Z,99118.28
2023-02-18T08:02:53.304Z,99119.84
2023-02-18T08:05:21.001Z,99115.50
2023-02-18T08:07:48.668Z,99125.72
2023-02-18T08:10:17.659Z,99129.13
2023-02-18T08:12:45.307Z,99128.22
2023-02-18T08:15:13.204Z,99147.81
2023-02-18T08:17:41.079Z,99150.41
2023-02-18T08:20:09.214Z,99160.63
2023-02-18T08:22:36.916Z,99152.03
2023-02-18T08:25:04.886Z,99151.16
2023-02-18T08:27:34.123Z,99161.47
2023-02-18T08:30:01.816Z,99169.22
2023-02-18T08:32:29.892Z,99169.81
2023-02-18T08:34:57.722Z,99167.88
2023-02-18T08:37:25.646Z,99168.44
2023-02-18T08:39:53.446Z,99173.38
2023-02-18T08:42:21.124Z,99172.16
2023-02-18T08:44:50.167Z,99179.06
2023-02-18T08:48:19.426Z,99183.94
2023-02-18T08:50:05.610Z,99198.94
2023-02-18T08:52:33.332Z,99195.41
2023-02-18T08:55:01.030Z,99203.91
2023-02-18T08:57:28.920Z,99204.84
2023-02-18T08:59:57.912Z,99211.66
2023-02-18T09:02:25.647Z,99211.75
2023-02-18T09:04:53.350Z,99209.69
2023-02-18T09:07:21.019Z,99225.28
2023-02-18T09:09:48.672Z,99214.88
2023-02-18T09:12:16.344Z,99218.06
2023-02-18T09:14:43.984Z,99226.44
2023-02-18T09:17:13.031Z,99219.03
2023-02-18T09:19:40.679Z,99227.50
2023-02-18T09:22:08.406Z,99234.84
2023-02-18T09:24:38.313Z,99233.09
2023-02-18T09:27:06.277Z,99246.56
2023-02-18T09:29:34.315Z,99246.56
2023-02-18T09:32:02.202Z,99239.63
2023-02-18T09:34:31.486Z,99250.06
2023-02-18T09:36:59.312Z,99252.34
2023-02-18T09:39:27.035Z,99258.97
2023-02-18T09:41:55.775Z,99254.31
2023-02-18T09:44:26.189Z,99255.78
2023-02-18T09:46:55.485Z,99267.03
2023-02-18T09:49:26.388Z,99266.00
2023-02-18T09:51:56.475Z,99266.75
2023-02-18T09:54:24.397Z,99269.66
2023-02-18T09:56:54.452Z,99270.06
2023-02-18T09:59:23.641Z,99278.25
2023-02-18T10:01:53.147Z,99284.06
2023-02-18T10:04:23.906Z,99283.78
2023-02-18T10:06:53.015Z,99285.31
2023-02-18T10:09:22.949Z,99277.44
2023-02-18T10:11:56.243Z,99293.81
2023-02-18T10:14:26.837Z,99293.72
2023-02-18T10:16:55.011Z,99298.78
2023-02-18T10:19:25.137Z,99308.19
2023-02-18T10:21:53.567Z,99307.22
2023-02-18T10:24:27.936Z,99311.25
2023-02-18T10:26:56.027Z,99313.66
2023-02-18T10:29:24.447Z,99309.22
2023-02-18T10:31:55.681Z,99324.44
2023-02-18T10:34:36.684Z,99318.94
2023-02-18T10:37:08.735Z,99321.31
2023-02-18T10:39:42.729Z,99321.88
2023-02-18T10:42:21.029Z,99322.25
2023-02-18T10:44:54.496Z,99330.56
2023-02-18T10:47:28.237Z,99327.97
2023-02-18T10:50:00.034Z,99342.34
2023-02-18T10:52:29.599Z,99347.50
2023-02-18T10:55:01.914Z,99357.66
2023-02-18T10:57:29.625Z,99362.03
2023-02-18T11:00:01.990Z,99360.03
2023-02-18T11:02:32.573Z,99359.09
2023-02-18T11:05:06.602Z,99366.88
2023-02-18T11:07:35.489Z,99364.81
2023-02-18T11:10:11.196Z,99378.38
2023-02-18T11:12:44.395Z,99377.34
2023-02-18T11:15:18.833Z,99372.78
2023-02-18T11:17:47.160Z,99388.41
2023-02-18T11:20:26.824Z,99379.81
2023-02-18T11:22:58.448Z,99375.47
2023-02-18T11:25:29.185Z,99385.63
2023-02-18T11:27:57.769Z,99388.91
2023-02-18T11:30:27.899Z,99388.13
2023-02-18T11:32:57.101Z,99399.16
2023-02-18T11:35:26.212Z,99403.44
2023-02-18T11:37:54.501Z,99410.47
2023-02-18T11:40:23.907Z,99393.19
2023-02-18T11:42:53.065Z,99419.78
2023-02-18T11:45:28.212Z,99413.06
2023-02-18T11:47:59.994Z,99410.16
2023-02-18T11:50:31.700Z,99412.66
2023-02-18T11:52:59.930Z,99432.31
2023-02-18T11:55:30.608Z,99431.31
2023-02-18T11:58:02.405Z,99426.31
2023-02-18T12:00:39.006Z,99436.38
2023-02-18T12:03:10.327Z,99435.75
2023-02-18T12:05:38.990Z,99449.31
2023-02-18T12:08:08.552Z,99452.09
2023-02-18T12:10:37.940Z,99456.75
2023-02-18T12:13:11.960Z,99443.72
2023-02-18T12:15:47.504Z,99456.75
2023-02-18T12:18:28.881Z,99462.78
2023-02-18T12:21:05.416Z,99467.88
2023-02-18T12:23:38.485Z,99472.19
2023-02-18T12:26:14.161Z,99474.16
2023-02-18T12:28:51.760Z,99470.88
2023-02-18T12:31:36.570Z,99472.41
2023-02-18T12:34:14.270Z,99480.91
2023-02-18T12:36:50.697Z,99481.13
2023-02-18T12:39:25.211Z,99489.69
2023-02-18T12:41:56.831Z,99489.81
2023-02-18T12:44:33.194Z,99495.13
2023-02-18T12:47:11.862Z,99486.00
2023-02-18T12:49:56.029Z,99491.78
2023-02-18T12:52:27.893Z,99495.63
2023-02-18T12:55:11.072Z,99509.59
2023-02-18T12:57:43.868Z,99512.31
2023-02-18T13:00:31.134Z,99510.41
2023-02-18T13:03:17.314Z,99518.09
2023-02-18T13:05:51.536Z,99509.41
2023-02-18T13:08:27.140Z,99523.91
2023-02-18T13:11:10.192Z,99521.63
2023-02-18T13:13:39.993Z,99518.81
2023-02-18T13:16:11.505Z,99538.59
2023-02-18T13:18:40.792Z,99531.88
2023-02-18T13:21:12.144Z,99521.91
2023-02-18T13:23:41.545Z,99545.97
2023-02-18T13:26:12.664Z,99545.22
2023-02-18T13:28:44.134Z,99547.13
2023-02-18T13:31:18.073Z,99544.63
2023-02-18T13:33:47.972Z,99536.84
2023-02-18T13:36:23.956Z,99535.72
2023-02-18T13:38:57.993Z,99548.03
2023-02-18T13:41:27.697Z,99546.16
2023-02-18T13:43:55.382Z,99548.03
2023-02-18T13:46:24.058Z,99559.97
2023-02-18T13:48:53.030Z,99558.06
2023-02-18T13:51:30.722Z,99562.31
2023-02-18T13:54:02.179Z,99559.53
2023-02-18T13:56:31.182Z,99565.84
2023-02-18T13:59:01.966Z,99592.59
2023-02-18T14:01:43.065Z,99579.25
2023-02-18T14:04:29.132Z,99590.41
2023-02-18T14:07:15.489Z,99601.28
2023-02-18T14:09:44.855Z,99588.56
2023-02-18T14:12:27.394Z,99589.94
2023-02-18T14:14:55.070Z,99589.53
2023-02-18T14:17:37.653Z,99591.72
2023-02-18T14:20:26.318Z,99597.81
2023-02-18T14:22:54.085Z,99598.03
2023-02-18T14:25:32.401Z,99597.22
2023-02-18T14:28:02.731Z,99596.47
2023-02-18T14:30:33.401Z,99606.81
2023-02-18T14:33:02.075Z,99610.44
2023-02-18T14:35:34.097Z,99616.34
2023-02-18T14:38:25.307Z,99616.44
2023-02-18T14:41:03.010Z,99633.94
2023-02-18T14:43:41.176Z,99636.72
2023-02-18T14:46:16.426Z,99642.81
2023-02-18T14:48:50.969Z,99642.72
2023-02-18T14:51:21.354Z,99632.31
2023-02-18T14:53:49.473Z,99649.69
2023-02-18T14:56:19.546Z,99637.59
2023-02-18T14:58:48.713Z,99641.19
2023-02-18T15:01:19.426Z,99654.44
2023-02-18T15:03:47.661Z,99646.88
2023-02-18T15:06:29.727Z,99658.22
2023-02-18T15:08:57.404Z,99668.56
2023-02-18T15:11:31.657Z,99673.13
2023-02-18T15:13:59.345Z,99676.09
2023-02-18T15:16:29.760Z,99678.97
2023-02-18T15:19:00.352Z,99679.16
2023-02-18T15:21:30.355Z,99686.06
2023-02-18T15:24:03.459Z,99693.53
2023-02-18T15:26:32.532Z,99693.81
2023-02-18T15:29:01.233Z,99698.09
2023-02-18T15:31:30.412Z,99703.25
2023-02-18T15:33:59.210Z,99712.09
2023-02-18T15:36:27.499Z,99711.47
2023-02-18T15:38:57.364Z,99724.41
2023-02-18T15:41:25.012Z,99728.66
2023-02-18T15:43:55.083Z,99728.72
2023-02-18T15:46:26.253Z,99731.16
2023-02-18T15:48:54.506Z,99733.81
2023-02-18T15:51:23.824Z,99733.06
2023-02-18T15:53:52.749Z,99740.91
2023-02-18T15:56:22.783Z,99748.56
2023-02-18T15:58:50.443Z,99752.72
2023-02-18T16:01:28.858Z,99761.19
2023-02-18T16:03:57.534Z,99764.31
2023-02-18T16:06:26.327Z,99768.84
2023-02-18T16:08:58.899Z,99768.00
2023-02-18T16:11:28.597Z,99777.41
2023-02-18T16:13:56.268Z,99793.00
2023-02-18T16:16:26.001Z,99782.28
2023-02-18T16:18:55.142Z,99783.84
2023-02-18T16:21:27.770Z,99798.59
2023-02-18T16:23:57.981Z,99796.41
2023-02-18T16:26:29.157Z,99804.88
2023-02-18T16:29:01.984Z,99806.72
2023-02-18T16:31:29.739Z,99801.81
2023-02-18T16:33:58.893Z,99805.31
2023-02-18T16:36:26.816Z,99815.97
2023-02-18T16:38:54.558Z,99823.97
2023-02-18T16:41:22.252Z,99827.50
2023-02-18T16:43:50.463Z,99831.63
2023-02-18T16:46:19.597Z,99828.06
2023-02-18T16:48:47.879Z,99836.81
2023-02-18T16:51:18.085Z,99843.75
2023-02-18T16:53:45.825Z,99837.22
2023-02-18T16:56:15.225Z,99846.66
2023-02-18T16:58:42.859Z,99845.41
2023-02-18T17:01:19.795Z,99841.91
2023-02-18T17:03:48.899Z,99847.31
2023-02-18T17:06:18.077Z,99851.81
2023-02-18T17:08:45.807Z,99848.31
2023-02-18T17:11:17.111Z,99846.91
2023-02-18T17:13:44.869Z,99856.13
2023-02-18T17:16:12.870Z,99858.81
2023-02-18T17:18:40.991Z,99855.38
2023-02-18T17:21:11.417Z,99869.22
2023-02-18T17:23:40.509Z,99871.09
2023-02-18T17:26:12.568Z,99869.22
2023-02-18T17:28:40.174Z,99876.03
2023-02-18T17:31:09.955Z,99866.72
2023-02-18T17:33:37.617Z,99873.03
2023-02-18T17:36:05.476Z,99880.00
2023-02-18T17:38:34.565Z,99884.41
2023-02-18T17:41:03.788Z,99885.56
2023-02-18T17:43:31.525Z,99891.75
2023-02-18T17:45:59.553Z,99897.06
2023-02-18T17:48:28.334Z,99903.63
2023-02-18T17:50:56.368Z,99905.47
2023-02-18T17:53:24.085Z,99908.72
2023-02-18T17:55:52.279Z,99906.16
2023-02-18T17:58:21.368Z,99917.31
2023-02-18T18:00:50.400Z,99913.97
2023-02-18T18:03:18.558Z,99927.78
2023-02-18T18:05:49.081Z,99927.09
2023-02-18T18:08:16.958Z,99929.91
2023-02-18T18:10:49.884Z,99929.22
2023-02-18T18:13:20.854Z,99929.84
2023-02-18T18:15:50.272Z,99929.84
2023-02-18T18:18:18.481Z,99948.13
2023-02-18T18:20:47.250Z,99944.06
2023-02-18T18:23:15.768Z,99943.34
2023-02-18T18:25:44.482Z,99948.66
2023-02-18T18:28:12.389Z,99948.75
2023-02-18T18:30:41.539Z,99952.31
2023-02-18T18:33:15.090Z,99955.75
2023-02-18T18:35:43.247Z,99956.88
2023-02-18T18:38:10.932Z,99961.13
2023-02-18T18:40:38.643Z,99960.97
2023-02-18T18:43:06.416Z,99959.28
2023-02-18T18:45:35.098Z,99962.94
2023-02-18T18:48:02.777Z,99978.56
2023-02-18T18:50:33.993Z,99967.63
2023-02-18T18:53:01.605Z,99978.88
2023-02-18T18:55:30.412Z,99980.75
2023-02-18T18:57:58.628Z,99989.34
2023-02-18T19:00:28.101Z,99986.97
2023-02-18T19:02:55.748Z,99993.19
2023-02-18T19:05:25.413Z,99996.66
2023-02-18T19:07:54.711Z,99996.00
2023-02-18T19:10:22.980Z,100004.31
2023-02-18T19:12:51.090Z,100006.09
2023-02-18T19:15:20.730Z,100007.06
2023-02-18T19:17:49.691Z,100009.63
2023-02-18T19:20:20.772Z,100003.66
2023-02-18T19:22:48.484Z,100014.78
2023-02-18T19:25:18.082Z,100009.03
2023-02-18T19:27:46.985Z,100018.44
2023-02-18T19:30:16.335Z,100023.00
2023-02-18T19:32:44.124Z,100022.00
2023-02-18T19:35:12.324Z,100030.53
2023-02-18T19:37:40.043Z,100028.28
2023-02-18T19:40:08.661Z,100028.34
2023-02-18T19:42:37.772Z,100027.28
2023-02-18T19:45:06.016Z,100034.25
2023-02-18T19:47:33.735Z,100044.09
2023-02-18T19:50:02.034Z,100040.69
2023-02-18T19:52:30.360Z,100039.63
2023-02-18T19:54:57.985Z,100045.84
2023-02-18T19:57:26.176Z,100036.22
2023-02-18T19:59:55.689Z,100035.66
2023-02-18T20:02:24.286Z,100034.63
2023-02-18T20:04:52.550Z,100049.34
2023-02-18T20:07:20.883Z,100042.56
2023-02-18T20:09:48.693Z,100037.00
2023-02-18T20:12:16.366Z,100050.03
2023-02-18T20:14:44.318Z,100047.75
2023-02-18T20:17:13.511Z,100048.47
2023-02-18T20:19:41.165Z,100053.78
2023-02-18T20:22:10.367Z,100058.19
2023-02-18T20:24:39.601Z,100051.47
2023-02-18T20:27:07.793Z,100060.13
2023-02-18T20:29:36.376Z,100065.34
2023-02-18T20:32:04.199Z,100067.97
2023-02-18T20:34:33.917Z,100069.94
2023-02-18T20:37:02.012Z,100064.00
2023-02-18T20:39:29.727Z,100073.75
2023-02-18T20:41:59.299Z,100078.16
2023-02-18T20:44:31.020Z,100081.41
2023-02-18T20:46:58.705Z,100081.34
2023-02-18T20:49:26.500Z,100085.81
2023-02-18T20:51:55.548Z,100089.34
2023-02-18T20:54:23.292Z,100085.94
2023-02-18T20:56:51.032Z,100084.19
2023-02-18T20:59:19.787Z,100081.59
2023-02-18T21:01:48.184Z,100094.69
2023-02-18T21:04:16.492Z,100092.09
2023-02-18T21:06:45.262Z,100092.25
2023-02-18T21:09:14.662Z,100095.59
2023-02-18T21:11:42.682Z,100093.28
2023-02-18T21:14:11.072Z,100101.13
2023-02-18T21:16:39.638Z,100100.22
2023-02-18T21:19:08.063Z,100095.13
2023-02-18T21:21:35.743Z,100100.56
2023-02-18T21:24:03.691Z,100099.72
2023-02-18T21:26:32.766Z,100103.25
2023-02-18T21:29:01.111Z,100105.06
2023-02-18T21:31:29.787Z,100106.03
2023-02-18T21:33:57.572Z,100102.56
2023-02-18T21:36:25.911Z,100102.94
2023-02-18T21:38:54.205Z,100109.75
2023-02-18T21:41:21.974Z,100107.31
2023-02-18T21:43:51.024Z,100112.53
2023-02-18T21:46:19.707Z,100109.34
2023-02-18T21:49:05.151Z,100112.84
2023-02-18T21:51:51.758Z,100109.97
2023-02-18T21:54:20.024Z,100116.00
2023-02-18T21:56:47.857Z,100120.44
2023-02-18T21:59:17.003Z,100122.31
2023-02-18T22:01:44.689Z,100127.66
2023-02-18T22:04:12.867Z,100120.13
2023-02-18T22:06:40.925Z,100122.69
2023-02-18T22:09:09.824Z,100122.88
2023-02-18T22:11:37.498Z,100125.34
2023-02-18T22:14:05.233Z,100126.34
2023-02-18T22:16:34.306Z,100127.91
2023-02-18T22:19:02.028Z,100131.47
2023-02-18T22:21:29.999Z,100130.78
2023-02-18T22:23:57.637Z,100119.78
2023-02-18T22:26:25.345Z,100122.66
2023-02-18T22:28:54.475Z,100125.03
2023-02-18T22:31:23.003Z,100127.69
2023-02-18T22:33:52.664Z,100123.50
2023-02-18T22:36:21.301Z,100121.91
2023-02-18T22:38:49.302Z,100129.78
2023-02-18T22:41:17.947Z,100136.59
2023-02-18T22:43:45.911Z,100144.44
2023-02-18T22:46:14.801Z,100136.66
2023-02-18T22:48:42.895Z,100133.31
2023-02-18T22:51:13.389Z,100145.53
2023-02-18T22:53:41.541Z,100138.69
2023-02-18T22:56:10.570Z,100144.69
2023-02-18T22:58:38.257Z,100143.88
2023-02-18T23:01:06.972Z,100146.41
2023-02-18T23:03:35.243Z,100148.16
2023-02-18T23:06:03.362Z,100153.31
2023-02-18T23:08:33.426Z,100149.16
2023-02-18T23:11:01.687Z,100147.00
2023-02-18T23:13:29.389Z,100153.66
2023-02-18T23:15:57.659Z,100155.31
2023-02-18T23:18:25.416Z,100150.22
2023-02-18T23:21:10.863Z,100151.19
2023-02-18T23:23:40.259Z,100151.25
2023-02-18T23:26:08.346Z,100148.84
2023-02-18T23:28:47.744Z,100143.53
2023-02-18T23:31:16.685Z,100157.34
2023-02-18T23:33:44.983Z,100157.38
2023-02-18T23:36:14.464Z,100162.53
2023-02-18T23:38:43.520Z,100163.63
2023-02-18T23:41:11.412Z,100161.81
2023-02-18T23:43:39.239Z,100163.72
2023-02-18T23:46:07.032Z,100168.69
2023-02-18T23:48:38.192Z,100168.06
2023-02-18T23:51:07.677Z,100157.78
2023-02-18T23:53:36.322Z,100161.38
2023-02-18T23:56:07.632Z,100159.53
2023-02-18T23:58:35.769Z,100164.69
